Terminal Aerodrome Forecast
Issued by NWS Upton, NY

Home | Current Version | Previous Version | Text Only | Print | Product List | Glossary On
Versions: 1 2 3 4 5 6 7 8 9 10 11 12 13 14 15 16 17 18 19 20 21 22 23 24 25 26 27 28 29 30 31 32 33 34 35
000
FTUS41 KOKX 210821 AAA
TAFJFK
TAF AMD
KJFK 210821Z 2108/2212 31006KT P6SM SCT060 BKN250
     FM211200 30007KT P6SM FEW002 SCT080
     FM211600 27009KT P6SM FEW050
     FM211900 23012KT P6SM SCT050
      TEMPO 2119/2121 23012G18KT
     FM220000 25011KT P6SM SCT070
     FM220200 29008KT P6SM SCT050
     FM220600 32005KT P6SM FEW060=

USA.gov is the U.S. government's official web portal to all federal, state and local government web resources and services.